Time;durP1;ratioP1;P1;durP2;ratioP2;P2;SDS_P1;SDS_P2;PMS_P1;PMS_P2;Temp;Humidity;BMP_temperature;BMP_pressure;BME280_temperature;BME280_humidity;BME280_pressure;Samples;Min_cycle;Max_cycle;Signal;HPM_P1;HPM_P2
2023/07/05 00:00:40;;;;;;;1.30;1.23;;;18.90;99.90;;;;;;5002061;28;20203;-72
2023/07/05 00:03:08;;;;;;;1.30;1.20;;;18.90;99.90;;;;;;5004819;28;20212;-72
2023/07/05 00:05:36;;;;;;;1.45;1.35;;;18.80;99.90;;;;;;5006770;28;20228;-72
2023/07/05 00:08:03;;;;;;;1.30;1.20;;;18.90;99.90;;;;;;4999627;28;20200;-72
2023/07/05 00:10:30;;;;;;;1.40;1.30;;;18.90;99.90;;;;;;4998076;28;20216;-72
2023/07/05 00:12:59;;;;;;;1.08;1.00;;;19.00;99.90;;;;;;5007203;28;20283;-72
2023/07/05 00:15:26;;;;;;;1.42;1.33;;;19.10;99.90;;;;;;5001601;28;20236;-72
2023/07/05 00:17:55;;;;;;;1.10;1.10;;;19.20;99.90;;;;;;4998440;28;20280;-72
2023/07/05 00:20:25;;;;;;;1.67;1.58;;;19.20;99.90;;;;;;5001491;28;20243;-72
2023/07/05 00:22:53;;;;;;;1.52;1.42;;;19.30;99.90;;;;;;5002200;28;20299;-72
2023/07/05 00:25:20;;;;;;;1.45;1.00;;;19.30;99.90;;;;;;4982414;28;20480;-72
2023/07/05 00:27:48;;;;;;;1.35;1.20;;;19.20;99.90;;;;;;5001504;28;20550;-72
2023/07/05 00:30:16;;;;;;;1.50;1.40;;;19.20;99.90;;;;;;4965369;28;20244;-72
2023/07/05 00:32:43;;;;;;;1.20;1.10;;;19.20;99.90;;;;;;5000244;28;20282;-72
2023/07/05 00:35:12;;;;;;;1.30;1.20;;;19.20;99.90;;;;;;4997892;28;20205;-73
2023/07/05 00:37:39;;;;;;;1.65;1.55;;;19.20;99.90;;;;;;5000431;28;20729;-72
2023/07/05 00:40:07;;;;;;;1.40;1.30;;;19.20;99.90;;;;;;4995316;28;20478;-73
2023/07/05 00:42:34;;;;;;;1.30;1.20;;;19.20;99.90;;;;;;5002393;28;20254;-72
2023/07/05 00:45:53;;;;;;;1.30;1.20;;;19.30;99.90;;;;;;5004521;28;20628;-73
2023/07/05 00:48:26;;;;;;;1.20;1.10;;;19.30;99.90;;;;;;4956997;28;20278;-73
2023/07/05 00:50:58;;;;;;;2.10;1.40;;;19.30;99.90;;;;;;4978024;28;20200;-74
2023/07/05 00:53:27;;;;;;;2.58;1.40;;;19.20;99.90;;;;;;5003316;28;20231;-73
2023/07/05 00:55:59;;;;;;;1.30;1.20;;;19.10;99.90;;;;;;5002265;28;20628;-73
2023/07/05 00:58:27;;;;;;;1.33;1.20;;;19.10;99.90;;;;;;5000583;28;20228;-73
2023/07/05 01:00:54;;;;;;;1.75;1.20;;;19.00;99.90;;;;;;5002687;28;20238;-73
2023/07/05 01:03:24;;;;;;;2.38;1.60;;;19.00;99.90;;;;;;5001010;28;20565;-73
2023/07/05 01:05:55;;;;;;;5.15;1.50;;;18.90;99.90;;;;;;4987935;28;20710;-73
2023/07/05 01:08:25;;;;;;;1.60;1.50;;;18.90;99.90;;;;;;5011215;28;20245;-72
2023/07/05 01:11:01;;;;;;;1.42;1.20;;;18.90;99.90;;;;;;5023003;28;20277;-72
2023/07/05 01:13:31;;;;;;;1.45;1.30;;;18.90;99.90;;;;;;4996677;28;20204;-73
2023/07/05 01:16:23;;;;;;;1.30;1.20;;;18.80;99.90;;;;;;5003507;28;20291;-73
2023/07/05 01:18:58;;;;;;;1.20;1.10;;;18.70;99.90;;;;;;4999324;28;20314;-73
2023/07/05 01:21:35;;;;;;;1.30;1.20;;;18.70;99.90;;;;;;4968009;28;20196;-73
2023/07/05 01:24:30;;;;;;;1.40;1.30;;;18.70;99.90;;;;;;4989362;28;20668;-73
2023/07/05 01:27:32;;;;;;;1.20;1.10;;;18.80;99.90;;;;;;4999338;28;20247;-72
2023/07/05 01:30:39;;;;;;;1.75;1.38;;;18.90;99.90;;;;;;4971158;28;20228;-73
2023/07/05 01:33:13;;;;;;;1.50;1.40;;;18.90;99.90;;;;;;5002750;28;20205;-72
2023/07/05 01:35:45;;;;;;;2.08;1.60;;;18.90;99.90;;;;;;5003518;28;20207;-74
2023/07/05 01:38:13;;;;;;;1.73;1.63;;;18.80;99.90;;;;;;4984909;28;20672;-73
2023/07/05 01:41:02;;;;;;;1.63;1.42;;;18.80;99.90;;;;;;5000567;28;20208;-73
2023/07/05 01:43:32;;;;;;;1.60;1.50;;;18.80;99.90;;;;;;4998156;28;20213;-74
2023/07/05 01:46:21;;;;;;;1.13;1.10;;;18.80;99.90;;;;;;5006967;28;20768;-74
2023/07/05 01:49:01;;;;;;;1.52;1.10;;;18.70;99.90;;;;;;4984799;28;20371;-73
2023/07/05 01:51:42;;;;;;;1.50;1.40;;;18.70;99.90;;;;;;5004353;28;20246;-73
2023/07/05 01:54:14;;;;;;;1.30;1.20;;;18.70;99.90;;;;;;5003148;28;20582;-73
2023/07/05 01:56:51;;;;;;;1.33;1.23;;;18.80;99.90;;;;;;5002570;28;20225;-74
2023/07/05 01:59:22;;;;;;;1.77;1.38;;;18.80;99.90;;;;;;5000492;28;20705;-73
2023/07/05 02:01:52;;;;;;;1.88;1.10;;;18.80;99.90;;;;;;4979811;28;20701;-74
2023/07/05 02:04:22;;;;;;;4.10;1.60;;;18.80;99.90;;;;;;4989511;28;20301;-73
2023/07/05 02:06:51;;;;;;;1.60;1.33;;;18.80;99.90;;;;;;5001842;28;20715;-73
2023/07/05 02:09:18;;;;;;;1.45;1.35;;;18.80;99.90;;;;;;4971598;28;20224;-73
2023/07/05 02:11:45;;;;;;;1.45;1.35;;;18.90;99.90;;;;;;5002182;28;20219;-73
2023/07/05 02:14:12;;;;;;;1.23;1.23;;;18.90;99.90;;;;;;5001359;28;20286;-73
2023/07/05 02:16:40;;;;;;;1.42;1.30;;;19.00;99.90;;;;;;5004779;28;20304;-73
2023/07/05 02:19:07;;;;;;;1.42;1.30;;;19.00;99.90;;;;;;4987330;28;20223;-73
2023/07/05 02:21:35;;;;;;;1.60;1.50;;;19.00;99.90;;;;;;5004104;28;20208;-72
2023/07/05 02:24:03;;;;;;;2.25;1.50;;;19.00;99.90;;;;;;5002706;28;20658;-73
2023/07/05 02:26:33;;;;;;;1.50;1.40;;;19.00;99.90;;;;;;4998690;28;20617;-73
2023/07/05 02:29:01;;;;;;;1.88;1.40;;;18.90;99.90;;;;;;4999287;28;20220;-73
2023/07/05 02:31:29;;;;;;;1.30;1.20;;;18.90;99.90;;;;;;4971600;28;20437;-73
2023/07/05 02:33:56;;;;;;;1.20;1.10;;;18.80;99.90;;;;;;4995477;28;20212;-73
2023/07/05 02:36:23;;;;;;;1.33;1.23;;;18.80;99.90;;;;;;5007413;28;20224;-74
2023/07/05 02:38:53;;;;;;;1.40;1.20;;;18.70;99.90;;;;;;4985085;28;20851;-73
2023/07/05 02:41:21;;;;;;;1.60;1.50;;;18.70;99.90;;;;;;4999128;28;20208;-74
2023/07/05 02:43:50;;;;;;;1.40;1.30;;;18.70;99.90;;;;;;5000841;28;20275;-73
2023/07/05 02:46:17;;;;;;;1.45;1.35;;;18.70;99.90;;;;;;5005102;28;20658;-73
2023/07/05 02:48:45;;;;;;;2.10;1.30;;;18.60;99.90;;;;;;4993979;28;20256;-74
2023/07/05 02:51:12;;;;;;;1.90;1.40;;;18.60;99.90;;;;;;4999141;28;20729;-73
2023/07/05 02:53:39;;;;;;;1.83;1.45;;;18.50;99.90;;;;;;4999124;28;20196;-73
2023/07/05 02:56:08;;;;;;;1.23;1.10;;;18.40;99.90;;;;;;5006568;28;20242;-73
2023/07/05 02:58:35;;;;;;;1.50;1.40;;;18.50;99.90;;;;;;4982311;28;20777;-72
2023/07/05 03:01:02;;;;;;;1.48;1.23;;;18.60;99.90;;;;;;5002846;28;20279;-72
2023/07/05 03:03:29;;;;;;;1.70;1.60;;;18.60;99.90;;;;;;5002792;28;22336;-72
2023/07/05 03:05:58;;;;;;;1.55;1.30;;;18.70;99.90;;;;;;5008265;28;20246;-71
2023/07/05 03:08:27;;;;;;;1.70;1.60;;;18.70;99.90;;;;;;5004684;28;20181;-72
2023/07/05 03:10:56;;;;;;;1.60;1.50;;;18.70;99.90;;;;;;5009263;28;20263;-71
2023/07/05 03:13:28;;;;;;;1.60;1.45;;;18.80;99.90;;;;;;5014363;28;20201;-71
2023/07/05 03:15:56;;;;;;;1.40;1.23;;;18.90;99.90;;;;;;5013374;28;20212;-71
2023/07/05 03:18:24;;;;;;;1.40;1.30;;;18.80;99.90;;;;;;5021270;28;20689;-71
2023/07/05 03:20:51;;;;;;;1.52;1.33;;;18.80;99.90;;;;;;5020772;28;20544;-71
2023/07/05 03:23:18;;;;;;;1.92;1.63;;;18.70;99.90;;;;;;5018472;28;20196;-71
2023/07/05 03:25:54;;;;;;;3.15;1.42;;;18.70;99.90;;;;;;5014480;28;20243;-72
2023/07/05 03:28:22;;;;;;;1.83;1.33;;;18.60;99.90;;;;;;5016169;28;20195;-71
2023/07/05 03:30:56;;;;;;;1.02;1.02;;;18.50;99.90;;;;;;5013990;28;20208;-71
2023/07/05 03:33:23;;;;;;;1.25;1.15;;;18.50;99.90;;;;;;5018263;28;20209;-72
2023/07/05 03:35:55;;;;;;;1.55;1.42;;;18.50;99.90;;;;;;5015693;28;20201;-71
2023/07/05 03:38:24;;;;;;;1.50;1.40;;;18.50;99.90;;;;;;5031786;28;20222;-72
2023/07/05 03:40:58;;;;;;;1.40;1.30;;;18.50;99.90;;;;;;4998077;28;20227;-72
2023/07/05 03:43:26;;;;;;;1.02;1.02;;;18.50;99.90;;;;;;5015313;28;20231;-73
2023/07/05 03:45:55;;;;;;;2.92;1.48;;;18.50;99.90;;;;;;5017278;28;20212;-73
2023/07/05 03:48:22;;;;;;;1.50;1.40;;;18.50;99.90;;;;;;4999515;28;20193;-74
2023/07/05 03:50:50;;;;;;;1.45;1.30;;;18.40;99.90;;;;;;4995848;28;20205;-73
2023/07/05 03:53:17;;;;;;;2.20;1.55;;;18.50;99.90;;;;;;4984622;28;20437;-73
2023/07/05 03:55:44;;;;;;;1.35;1.10;;;18.60;99.90;;;;;;5001457;28;20231;-72
2023/07/05 03:58:11;;;;;;;1.50;1.40;;;18.70;99.90;;;;;;4981112;28;20332;-72
2023/07/05 04:00:38;;;;;;;1.30;1.20;;;18.70;99.90;;;;;;4998539;28;20270;-72
2023/07/05 04:03:07;;;;;;;2.05;1.17;;;18.70;99.90;;;;;;4987926;28;20784;-72
2023/07/05 04:05:35;;;;;;;1.95;1.75;;;18.70;99.90;;;;;;4998273;28;20287;-72
2023/07/05 04:08:02;;;;;;;2.97;1.30;;;18.70;99.90;;;;;;5003129;28;20347;-72
2023/07/05 04:10:29;;;;;;;1.25;1.20;;;18.70;99.90;;;;;;5004863;28;20644;-72
2023/07/05 04:12:56;;;;;;;1.40;1.30;;;18.70;99.90;;;;;;4998605;28;20232;-72
2023/07/05 04:15:23;;;;;;;1.20;1.10;;;18.70;99.90;;;;;;4994116;28;20278;-72
2023/07/05 04:17:51;;;;;;;1.50;1.40;;;18.70;99.90;;;;;;5000132;28;20267;-72
2023/07/05 04:20:19;;;;;;;1.10;1.00;;;18.70;99.90;;;;;;4998098;28;20223;-72
2023/07/05 04:22:47;;;;;;;1.30;1.20;;;18.70;99.90;;;;;;5000553;28;20200;-73
2023/07/05 04:25:14;;;;;;;1.58;1.48;;;18.70;99.90;;;;;;5000545;28;20233;-74
2023/07/05 04:27:41;;;;;;;1.40;1.30;;;18.80;99.90;;;;;;5007483;28;20235;-73
2023/07/05 04:30:09;;;;;;;4.57;1.63;;;18.90;99.90;;;;;;5007288;28;20251;-73
2023/07/05 04:32:36;;;;;;;1.65;1.50;;;18.90;99.90;;;;;;5004084;28;20254;-73
2023/07/05 04:35:04;;;;;;;1.60;1.50;;;19.10;99.90;;;;;;5000868;28;20204;-72
2023/07/05 04:37:33;;;;;;;1.77;1.63;;;19.20;99.90;;;;;;5008095;28;20242;-73
2023/07/05 04:40:00;;;;;;;2.33;1.65;;;19.40;99.90;;;;;;5012579;28;20249;-72
2023/07/05 04:42:27;;;;;;;3.67;1.58;;;19.40;99.90;;;;;;5018549;28;20196;-73
2023/07/05 04:44:54;;;;;;;1.90;1.70;;;19.40;99.90;;;;;;5006259;28;20295;-73
2023/07/05 04:47:21;;;;;;;2.72;1.98;;;19.40;99.90;;;;;;4984031;28;20209;-73
2023/07/05 04:49:49;;;;;;;2.47;2.00;;;19.40;99.90;;;;;;4984192;28;20232;-73
2023/07/05 04:52:17;;;;;;;2.10;1.95;;;19.40;99.90;;;;;;5000804;28;20200;-73
2023/07/05 04:54:45;;;;;;;2.42;2.05;;;19.30;99.90;;;;;;5016015;28;20251;-73
2023/07/05 04:57:12;;;;;;;2.10;1.95;;;19.40;99.90;;;;;;5004460;28;20736;-72
2023/07/05 04:59:43;;;;;;;2.00;1.90;;;19.30;99.90;;;;;;4999784;28;20288;-68
2023/07/05 05:02:10;;;;;;;2.60;1.73;;;19.20;99.90;;;;;;5009548;28;20200;-68
2023/07/05 05:04:38;;;;;;;1.63;1.52;;;19.30;99.90;;;;;;5000822;28;20213;-72
2023/07/05 05:07:06;;;;;;;2.20;2.00;;;19.30;99.90;;;;;;4983894;28;20229;-69
2023/07/05 05:09:34;;;;;;;2.38;1.70;;;19.40;99.90;;;;;;5006285;28;20303;-68
2023/07/05 05:12:04;;;;;;;1.83;1.73;;;19.50;99.90;;;;;;5006455;28;20237;-68
2023/07/05 05:15:23;;;;;;;2.15;1.63;;;19.40;99.90;;;;;;5106541;27;21251;-76
2023/07/05 05:17:50;;;;;;;1.88;1.77;;;19.30;99.90;;;;;;5121912;27;20272;-76
2023/07/05 05:20:18;;;;;;;1.88;1.42;;;19.20;99.90;;;;;;5110404;27;20279;-78
2023/07/05 05:22:45;;;;;;;1.83;1.73;;;19.30;99.90;;;;;;5114538;27;20311;-77
2023/07/05 05:25:11;;;;;;;2.58;1.80;;;19.40;99.90;;;;;;5105962;28;20264;-78
2023/07/05 05:27:38;;;;;;;1.77;1.67;;;19.60;99.90;;;;;;5119935;27;20200;-77
2023/07/05 05:30:07;;;;;;;1.63;1.38;;;19.70;99.90;;;;;;5120689;27;20315;-78
2023/07/05 05:32:38;;;;;;;2.42;1.98;;;19.80;99.90;;;;;;5110114;27;20287;-77
2023/07/05 05:35:06;;;;;;;2.22;1.90;;;19.90;99.90;;;;;;5119703;28;20291;-77
2023/07/05 05:37:33;;;;;;;1.80;1.70;;;19.90;99.90;;;;;;5116887;27;20199;-79
2023/07/05 05:40:00;;;;;;;1.85;1.75;;;19.90;99.90;;;;;;5117729;28;20200;-78
2023/07/05 05:42:27;;;;;;;1.95;1.85;;;19.90;99.90;;;;;;5115300;27;20224;-76
2023/07/05 05:44:54;;;;;;;1.80;1.70;;;19.80;99.90;;;;;;5119336;27;20231;-76
2023/07/05 05:47:20;;;;;;;4.00;2.30;;;19.50;99.90;;;;;;5116048;27;20702;-77
2023/07/05 05:49:49;;;;;;;2.67;2.47;;;19.40;99.90;;;;;;5117870;27;20291;-77
2023/07/05 05:52:16;;;;;;;3.33;2.28;;;19.20;99.90;;;;;;5120335;28;20297;-78
2023/07/05 05:54:44;;;;;;;2.40;2.17;;;19.10;99.90;;;;;;5115173;27;20213;-77
2023/07/05 05:57:11;;;;;;;2.75;2.22;;;18.80;99.90;;;;;;5114682;28;20233;-76
2023/07/05 05:59:38;;;;;;;2.20;2.00;;;18.70;99.90;;;;;;5115669;28;20283;-77
2023/07/05 06:02:05;;;;;;;1.90;1.63;;;18.60;99.90;;;;;;5111312;27;20704;-76
2023/07/05 06:04:32;;;;;;;2.03;1.83;;;18.80;99.90;;;;;;5114588;28;20230;-77
2023/07/05 06:07:00;;;;;;;2.20;2.10;;;19.00;99.90;;;;;;5115966;27;20245;-76
2023/07/05 06:09:27;;;;;;;2.72;2.10;;;19.00;99.90;;;;;;5122348;27;20201;-76
2023/07/05 06:11:54;;;;;;;2.58;2.38;;;18.90;99.90;;;;;;5114618;27;20311;-76
2023/07/05 06:14:21;;;;;;;2.33;2.05;;;18.80;99.90;;;;;;5113141;28;20348;-77
2023/07/05 06:16:48;;;;;;;2.40;2.20;;;18.80;99.90;;;;;;5114389;27;20197;-76
2023/07/05 06:19:15;;;;;;;3.38;2.42;;;19.00;99.90;;;;;;5117522;27;20228;-77
2023/07/05 06:21:42;;;;;;;4.50;2.28;;;19.20;99.90;;;;;;5116129;28;20216;-77
2023/07/05 06:24:10;;;;;;;2.63;2.38;;;19.50;99.90;;;;;;5111172;27;20221;-76
2023/07/05 06:26:37;;;;;;;4.18;2.53;;;19.60;99.90;;;;;;5101889;28;20262;-76
2023/07/05 06:29:04;;;;;;;4.72;2.70;;;19.70;99.90;;;;;;5101668;28;20727;-78
2023/07/05 06:31:33;;;;;;;2.25;2.05;;;19.70;99.90;;;;;;5103844;28;20942;-76
2023/07/05 06:34:00;;;;;;;3.97;2.97;;;19.70;99.90;;;;;;5102977;28;20213;-76
2023/07/05 06:36:27;;;;;;;2.53;2.22;;;19.80;99.90;;;;;;5103742;28;20558;-77
2023/07/05 06:38:54;;;;;;;3.17;2.72;;;19.90;99.90;;;;;;5101334;28;20695;-76
2023/07/05 06:41:22;;;;;;;2.58;2.38;;;20.10;99.90;;;;;;5102541;28;20244;-77
2023/07/05 06:43:49;;;;;;;5.63;2.95;;;20.20;99.90;;;;;;5102082;28;20256;-76
2023/07/05 06:46:16;;;;;;;3.25;2.45;;;20.30;99.90;;;;;;5104020;28;20292;-77
2023/07/05 06:48:45;;;;;;;3.40;2.60;;;20.10;99.90;;;;;;5126889;28;20189;-76
2023/07/05 06:51:12;;;;;;;2.67;2.47;;;20.00;99.90;;;;;;5103299;28;20699;-76
2023/07/05 06:53:39;;;;;;;3.65;2.17;;;20.10;99.90;;;;;;5100284;27;20193;-76
2023/07/05 06:56:07;;;;;;;4.47;2.80;;;20.20;99.90;;;;;;5099426;28;20229;-76
2023/07/05 06:58:36;;;;;;;2.53;2.15;;;20.30;99.90;;;;;;5105105;28;20205;-77
2023/07/05 07:01:04;;;;;;;2.20;2.00;;;20.50;99.90;;;;;;5114963;28;20216;-77
2023/07/05 07:03:31;;;;;;;2.28;2.17;;;20.70;99.90;;;;;;5107279;28;20655;-76
2023/07/05 07:05:59;;;;;;;2.72;2.53;;;21.00;99.90;;;;;;5102604;28;20197;-76
2023/07/05 07:08:30;;;;;;;2.88;2.15;;;21.20;99.90;;;;;;5099940;28;20284;-76
2023/07/05 07:11:00;;;;;;;2.42;2.22;;;21.30;99.90;;;;;;5101883;28;20303;-78
2023/07/05 07:13:27;;;;;;;2.95;2.10;;;21.40;99.90;;;;;;5100118;28;20300;-76
2023/07/05 07:16:01;;;;;;;3.92;2.35;;;21.40;99.90;;;;;;5100420;28;20784;-76
2023/07/05 07:18:28;;;;;;;2.10;2.00;;;21.40;99.90;;;;;;5098411;28;20224;-76
2023/07/05 07:20:55;;;;;;;2.30;2.10;;;21.70;99.90;;;;;;5097838;28;20804;-76
2023/07/05 07:23:22;;;;;;;2.83;2.50;;;21.90;99.90;;;;;;5099363;28;20220;-76
2023/07/05 07:25:58;;;;;;;1.83;1.73;;;22.00;99.90;;;;;;5095985;28;20212;-77
2023/07/05 07:28:25;;;;;;;2.50;2.30;;;22.40;99.90;;;;;;5099988;28;20200;-75
2023/07/05 07:30:52;;;;;;;2.83;2.28;;;22.50;99.90;;;;;;5095560;28;20241;-77
2023/07/05 07:33:20;;;;;;;2.33;2.13;;;22.40;99.90;;;;;;5098768;28;20257;-77
2023/07/05 07:35:48;;;;;;;2.95;2.08;;;22.40;99.90;;;;;;5096303;28;20270;-77
2023/07/05 07:38:15;;;;;;;2.20;2.00;;;22.30;99.90;;;;;;5099916;28;20201;-76
2023/07/05 07:40:42;;;;;;;2.45;2.22;;;22.20;99.90;;;;;;5098495;28;20241;-77
2023/07/05 07:43:09;;;;;;;2.25;1.90;;;22.20;99.90;;;;;;5097914;28;20229;-75
2023/07/05 07:45:36;;;;;;;2.60;1.95;;;22.30;99.90;;;;;;5097638;28;20309;-75
2023/07/05 07:48:03;;;;;;;2.75;2.28;;;22.30;99.90;;;;;;5098339;28;20660;-76
2023/07/05 07:50:32;;;;;;;2.20;2.00;;;22.40;99.90;;;;;;5094327;28;23061;-77
2023/07/05 07:52:59;;;;;;;1.92;1.80;;;22.40;99.90;;;;;;5098281;28;20594;-77
2023/07/05 07:55:26;;;;;;;2.50;1.95;;;22.50;99.90;;;;;;5100960;28;20682;-76
2023/07/05 07:57:53;;;;;;;2.58;2.03;;;22.70;99.90;;;;;;5101644;28;20256;-76
2023/07/05 08:00:21;;;;;;;2.95;1.80;;;22.90;99.90;;;;;;5096763;28;20429;-77
2023/07/05 08:02:48;;;;;;;3.45;1.98;;;22.90;99.90;;;;;;5097160;28;20213;-77
2023/07/05 08:05:16;;;;;;;3.00;2.00;;;22.80;99.90;;;;;;5104106;28;20228;-76
2023/07/05 08:07:44;;;;;;;2.10;2.00;;;22.80;99.90;;;;;;5100406;28;20193;-75
2023/07/05 08:10:11;;;;;;;2.10;1.92;;;22.70;99.90;;;;;;5095619;28;20287;-76
2023/07/05 08:12:38;;;;;;;1.90;1.80;;;22.80;99.90;;;;;;5093754;28;20248;-76
2023/07/05 08:15:07;;;;;;;2.05;1.95;;;22.80;99.90;;;;;;5092919;28;20218;-76
2023/07/05 08:17:35;;;;;;;2.15;1.90;;;22.90;99.90;;;;;;5095353;28;20224;-78
2023/07/05 08:20:03;;;;;;;2.15;1.75;;;23.00;99.90;;;;;;5101968;28;20196;-77
2023/07/05 08:22:30;;;;;;;2.13;1.98;;;23.20;99.90;;;;;;5095808;28;20229;-77
2023/07/05 08:24:59;;;;;;;2.20;2.10;;;23.40;99.90;;;;;;5095976;28;20213;-76
2023/07/05 08:27:26;;;;;;;2.10;2.00;;;23.50;99.90;;;;;;5098134;28;20224;-77
2023/07/05 08:29:53;;;;;;;3.53;2.30;;;23.60;99.90;;;;;;5098022;28;20228;-76
2023/07/05 08:32:21;;;;;;;1.98;1.88;;;23.80;99.90;;;;;;5114499;28;20221;-78
2023/07/05 08:34:49;;;;;;;2.45;1.67;;;23.80;99.90;;;;;;5108578;28;20213;-78
2023/07/05 08:37:16;;;;;;;2.10;1.90;;;23.80;99.90;;;;;;5107711;28;20304;-76
2023/07/05 08:39:43;;;;;;;2.05;1.60;;;24.00;99.90;;;;;;5093516;28;20197;-76
2023/07/05 08:42:37;;;;;;;1.92;1.83;;;24.10;99.90;;;;;;5094588;28;21782;-78
2023/07/05 08:45:16;;;;;;;2.25;2.10;;;24.20;99.90;;;;;;5097873;28;20250;-77
2023/07/05 08:47:48;;;;;;;2.17;1.92;;;24.30;99.90;;;;;;5099106;28;20304;-78
2023/07/05 08:50:23;;;;;;;1.85;1.75;;;24.20;99.90;;;;;;5096749;28;20630;-76
2023/07/05 08:52:55;;;;;;;2.08;1.88;;;24.40;99.90;;;;;;5091618;28;20216;-77
2023/07/05 08:55:29;;;;;;;3.55;2.28;;;24.40;99.90;;;;;;5091682;28;20274;-76
2023/07/05 08:57:59;;;;;;;2.45;2.00;;;24.40;99.90;;;;;;5096810;28;20219;-77
2023/07/05 09:00:33;;;;;;;2.58;1.65;;;24.40;99.90;;;;;;5091064;28;20206;-77
2023/07/05 09:03:00;;;;;;;1.67;1.58;;;24.50;99.90;;;;;;5096338;28;20252;-76
2023/07/05 09:05:34;;;;;;;2.08;1.73;;;24.50;99.90;;;;;;5094349;28;20232;-77
2023/07/05 09:08:15;;;;;;;3.25;2.05;;;24.50;99.90;;;;;;5090782;28;20207;-78
2023/07/05 09:10:46;;;;;;;1.80;1.63;;;24.40;99.90;;;;;;5091729;28;20672;-76
2023/07/05 09:13:31;;;;;;;3.22;1.85;;;24.40;99.90;;;;;;5094274;28;20201;-77
2023/07/05 09:16:05;;;;;;;1.92;1.80;;;24.40;99.90;;;;;;5100977;28;20217;-76
2023/07/05 09:18:39;;;;;;;1.90;1.70;;;24.50;99.90;;;;;;5103351;28;20205;-77
2023/07/05 09:21:30;;;;;;;2.05;1.80;;;24.60;99.90;;;;;;5096712;28;20256;-77
2023/07/05 09:24:08;;;;;;;2.22;2.00;;;24.80;99.90;;;;;;5090462;28;20206;-76
2023/07/05 09:26:38;;;;;;;3.22;2.03;;;25.00;99.90;;;;;;5095875;28;20300;-76
2023/07/05 09:29:13;;;;;;;1.63;1.52;;;25.10;99.90;;;;;;5091071;28;20206;-77
2023/07/05 09:31:42;;;;;;;1.85;1.73;;;25.40;99.90;;;;;;5096119;28;20227;-77
2023/07/05 09:34:19;;;;;;;1.80;1.70;;;25.60;99.90;;;;;;5091321;28;20261;-78
2023/07/05 09:36:47;;;;;;;2.00;1.80;;;25.70;99.90;;;;;;5095677;28;20667;-78
2023/07/05 09:39:28;;;;;;;1.90;1.80;;;25.50;99.90;;;;;;5094225;28;20651;-78
2023/07/05 09:41:58;;;;;;;1.70;1.60;;;25.70;99.90;;;;;;5093705;28;20208;-77
2023/07/05 09:44:26;;;;;;;1.75;1.65;;;25.70;99.90;;;;;;5091686;28;20292;-76
2023/07/05 09:46:53;;;;;;;2.03;1.90;;;25.70;99.90;;;;;;5094955;28;20280;-77
2023/07/05 09:49:21;;;;;;;2.05;1.70;;;25.90;99.90;;;;;;5089464;28;20293;-77
2023/07/05 09:51:48;;;;;;;2.20;1.77;;;25.70;99.90;;;;;;5096025;28;20217;-77
2023/07/05 09:54:21;;;;;;;1.48;1.38;;;25.70;99.90;;;;;;5093490;28;20812;-77
2023/07/05 09:57:09;;;;;;;2.35;1.63;;;25.70;99.90;;;;;;5094234;28;20232;-76
2023/07/05 09:59:38;;;;;;;2.15;1.95;;;25.70;99.90;;;;;;5086698;28;20204;-78
2023/07/05 10:02:19;;;;;;;1.85;1.75;;;25.50;99.90;;;;;;5097890;28;20285;-76
2023/07/05 10:04:48;;;;;;;1.80;1.70;;;25.90;99.90;;;;;;5092775;28;20208;-77
2023/07/05 10:07:16;;;;;;;1.92;1.83;;;26.00;99.90;;;;;;5097309;28;20221;-77
2023/07/05 10:09:56;;;;;;;2.15;1.65;;;25.90;99.90;;;;;;5099479;28;20602;-77
2023/07/05 10:12:25;;;;;;;2.38;1.88;;;25.90;99.90;;;;;;5098549;28;20794;-76
2023/07/05 10:14:57;;;;;;;3.05;1.90;;;25.90;99.90;;;;;;5095169;27;20249;-75
2023/07/05 10:17:25;;;;;;;1.60;1.50;;;26.00;99.90;;;;;;5097768;28;20667;-78
2023/07/05 10:19:53;;;;;;;2.75;1.73;;;26.00;99.90;;;;;;5096792;28;20189;-77
2023/07/05 10:22:27;;;;;;;2.53;1.75;;;26.10;99.90;;;;;;5100128;28;20228;-78
2023/07/05 10:24:58;;;;;;;1.80;1.65;;;26.00;99.90;;;;;;5093665;28;20198;-76
2023/07/05 10:27:29;;;;;;;1.52;1.42;;;26.00;99.90;;;;;;5095012;27;20590;-77
2023/07/05 10:30:04;;;;;;;3.17;1.60;;;26.10;99.90;;;;;;5096688;28;20328;-77
2023/07/05 10:32:31;;;;;;;2.00;1.80;;;26.40;99.90;;;;;;5094734;28;20252;-78
2023/07/05 10:34:59;;;;;;;1.73;1.50;;;26.50;99.90;;;;;;5098776;28;20220;-77
2023/07/05 10:37:34;;;;;;;3.05;1.80;;;26.50;99.90;;;;;;5097886;27;20570;-77
2023/07/05 10:40:09;;;;;;;1.90;1.40;;;26.50;99.90;;;;;;5094542;28;20232;-77
2023/07/05 10:42:37;;;;;;;2.65;1.90;;;26.50;99.90;;;;;;5097740;28;20307;-77
2023/07/05 10:45:13;;;;;;;1.95;1.63;;;26.50;99.90;;;;;;5096923;28;20618;-77
2023/07/05 10:47:42;;;;;;;2.10;1.63;;;26.80;99.90;;;;;;5099227;27;20456;-77
2023/07/05 10:50:10;;;;;;;1.45;1.35;;;26.80;99.90;;;;;;5093583;28;20232;-77
2023/07/05 10:52:39;;;;;;;1.70;1.60;;;26.80;99.90;;;;;;5092293;28;20225;-77
2023/07/05 10:55:20;;;;;;;1.40;1.30;;;26.90;99.90;;;;;;5101704;28;20289;-76
2023/07/05 10:57:53;;;;;;;1.67;1.58;;;26.90;99.90;;;;;;5100717;28;20233;-77
2023/07/05 11:00:32;;;;;;;3.20;1.45;;;27.00;99.90;;;;;;5097861;28;20205;-77
2023/07/05 11:03:10;;;;;;;1.65;1.55;;;27.10;99.90;;;;;;5100053;28;20300;-77
2023/07/05 11:05:48;;;;;;;1.77;1.55;;;26.80;99.90;;;;;;5098043;28;20718;-77
2023/07/05 11:08:23;;;;;;;2.55;1.40;;;26.90;99.90;;;;;;5099295;28;20288;-79
2023/07/05 11:10:51;;;;;;;1.50;1.40;;;27.10;99.90;;;;;;5102842;27;20217;-79
2023/07/05 11:13:20;;;;;;;1.55;1.30;;;27.30;99.90;;;;;;5100798;28;20257;-78
2023/07/05 11:15:49;;;;;;;2.20;1.45;;;27.20;99.90;;;;;;5098730;28;20205;-77
2023/07/05 11:18:18;;;;;;;2.20;1.85;;;27.10;99.90;;;;;;5100654;28;20205;-77
2023/07/05 11:20:50;;;;;;;2.13;1.38;;;27.30;99.90;;;;;;5100692;28;20568;-79
2023/07/05 11:23:51;;;;;;;1.50;1.40;;;27.30;99.90;;;;;;5098627;28;20208;-78
2023/07/05 11:26:31;;;;;;;1.60;1.48;;;27.20;99.90;;;;;;5098595;28;20657;-77
2023/07/05 11:28:59;;;;;;;1.98;1.58;;;27.30;99.90;;;;;;5093971;28;20200;-77
2023/07/05 11:31:59;;;;;;;1.88;1.45;;;27.40;99.90;;;;;;5100024;28;20710;-76
2023/07/05 11:34:48;;;;;;;1.48;1.35;;;27.50;99.90;;;;;;5098556;28;20228;-76
2023/07/05 11:37:43;;;;;;;1.58;1.48;;;27.50;99.90;;;;;;5098875;28;20274;-78
2023/07/05 11:41:00;;;;;;;1.80;1.70;;;27.70;99.90;;;;;;5094296;28;20226;-78
2023/07/05 11:43:36;;;;;;;1.73;1.45;;;27.80;99.90;;;;;;5099873;28;20203;-78
2023/07/05 11:46:04;;;;;;;2.20;1.50;;;28.00;99.90;;;;;;5101341;28;20193;-77
2023/07/05 11:48:41;;;;;;;1.55;1.40;;;28.20;99.90;;;;;;5098425;28;20217;-77
2023/07/05 11:51:32;;;;;;;1.77;1.55;;;28.30;99.90;;;;;;5095811;28;20216;-77
2023/07/05 11:54:02;;;;;;;2.72;1.40;;;28.30;99.90;;;;;;5084087;28;20787;-77
2023/07/05 11:56:33;;;;;;;1.98;1.50;;;28.30;99.90;;;;;;5098582;28;20707;-76
2023/07/05 11:59:03;;;;;;;1.80;1.60;;;28.40;99.90;;;;;;5094689;28;20204;-79
2023/07/05 12:01:33;;;;;;;4.32;1.77;;;28.50;99.90;;;;;;5099566;28;20223;-78
2023/07/05 12:04:06;;;;;;;1.55;1.40;;;28.50;99.90;;;;;;5094979;28;20288;-78
2023/07/05 12:06:39;;;;;;;1.75;1.40;;;28.70;99.90;;;;;;5096942;28;20193;-76
2023/07/05 12:09:11;;;;;;;1.45;1.35;;;28.80;99.90;;;;;;5095027;28;20210;-76
2023/07/05 12:11:40;;;;;;;1.70;1.60;;;28.70;99.90;;;;;;5093725;28;20229;-76
2023/07/05 12:14:10;;;;;;;2.03;1.63;;;28.50;99.90;;;;;;5098532;28;20666;-76
2023/07/05 12:16:38;;;;;;;1.58;1.48;;;28.40;99.90;;;;;;5099656;28;20266;-77
2023/07/05 12:19:08;;;;;;;2.10;1.80;;;28.50;99.90;;;;;;5106172;28;20521;-79
2023/07/05 12:21:36;;;;;;;2.17;1.85;;;28.60;99.90;;;;;;5107518;28;20843;-77
2023/07/05 12:24:07;;;;;;;2.40;1.70;;;28.60;99.90;;;;;;5102054;27;20254;-79
2023/07/05 12:26:35;;;;;;;2.05;1.85;;;28.50;99.90;;;;;;5102401;28;20276;-77
2023/07/05 12:29:16;;;;;;;2.75;2.05;;;28.50;99.90;;;;;;5098463;28;20259;-77
2023/07/05 12:31:43;;;;;;;2.70;1.95;;;28.60;99.90;;;;;;5096749;28;20817;-77
2023/07/05 12:34:20;;;;;;;3.15;1.85;;;28.60;99.90;;;;;;5096532;28;20201;-77
2023/07/05 12:36:47;;;;;;;1.83;1.70;;;28.40;99.90;;;;;;5098251;28;20216;-76
2023/07/05 12:39:16;;;;;;;3.13;2.00;;;28.40;99.90;;;;;;5092444;28;20217;-76
2023/07/05 12:41:44;;;;;;;2.63;1.92;;;28.40;99.90;;;;;;5095256;28;20224;-78
2023/07/05 12:44:14;;;;;;;1.92;1.83;;;28.50;99.90;;;;;;5097866;28;20806;-76
2023/07/05 12:46:42;;;;;;;2.50;2.30;;;28.70;99.90;;;;;;5096624;28;20205;-75
2023/07/05 12:49:13;;;;;;;1.80;1.70;;;28.70;99.90;;;;;;5095587;28;20197;-77
2023/07/05 12:51:53;;;;;;;1.95;1.70;;;28.90;99.90;;;;;;5098962;28;20734;-77
2023/07/05 12:54:20;;;;;;;2.42;1.70;;;28.90;99.90;;;;;;5097402;28;20261;-78
2023/07/05 12:56:49;;;;;;;1.80;1.70;;;28.90;99.90;;;;;;5098496;28;20308;-76
2023/07/05 12:59:29;;;;;;;2.08;1.92;;;29.00;99.90;;;;;;5096723;28;20223;-76
2023/07/05 13:01:57;;;;;;;1.83;1.73;;;29.00;99.90;;;;;;5103045;28;20221;-77
2023/07/05 13:04:25;;;;;;;2.20;2.03;;;28.80;99.90;;;;;;5100755;28;20826;-76
2023/07/05 13:06:56;;;;;;;2.25;1.95;;;28.60;99.90;;;;;;5096393;28;20552;-77